Hovedside
METAR-TAF:

METAR-TAF

Lufthavner :

Bornholms lufthavn

Rønne, Danmark

breddegrad: 55-04N, lengdegrad: 014-45E, høyde over havet: 16 m

Gjeldene værobservasjon

Denne rapporten ble laget for 23 minutter siden, klokken 12:20 UTC
Vind 14 kt fra Vest
Temperatur 5°C
Luftfuktighet 81%
Trykk 1012 hPa
Sikt 10 km eller mer

METAR: EKRN 241220Z AUTO 27014KT 9999 BKN018/// 05/02 Q1012

Tid: 13:43 (12:43 UTC)

Varsel

Denne rapporten ble laget for 1 time og 22 minutter siden, klokken 11:21 UTC
Varsel gyldig fra 24. klokken 12 UTC til 24. klokken 21 UTC
Vind 12 kt fra Vest-sørvest
Sikt 10 km eller mer
Brutte skyer i en høyde av 2000 ft
Midlertidig
fra 24. klokken 19 UTC til 24. klokken 21 UTC
Brutte skyer i en høyde av 1200 ft

TAF: EKRN 241121Z 2412/2421 24012KT 9999 BKN020 TEMPO 2419/2421 BKN012

Værobservasjoner og værvarsel for over 4000 flyplasser (METAR- og TAF-rapporter).

Tilgjengelige stasjoner er representert av de røde og gule prikkene på kartet.

Hold musepekeren over prikken for å se navnet på stasjonen.

Klikk så for å se værobservasjoner og -varsler.

For å forandre kartet kan du klikke på den grønne knappen med svart kryss for å zoome inn, på den grønne knappen med strek for å zoome ut, eller på de grønne pilene for å se tilstøtende kart.


METAR-TAF: